Time;durP1;ratioP1;P1;durP2;ratioP2;P2;SDS_P1;SDS_P2;PMS_P1;PMS_P2;Temp;Humidity;BMP_temperature;BMP_pressure;BME280_temperature;BME280_humidity;BME280_pressure;Samples;Min_cycle;Max_cycle;Signal;HPM_P1;HPM_P2
2023/06/17 00:02:16;;;;;;;4.32;3.50;;;;;;;;;;5037244;28;20034;-91
2023/06/17 00:04:43;;;;;;;6.30;3.83;;;;;;;;;;5026648;28;20030;-91
2023/06/17 00:07:19;;;;;;;5.40;4.32;;;;;;;;;;5039573;28;20557;-90
2023/06/17 00:09:47;;;;;;;5.78;4.10;;;;;;;;;;5041848;28;20032;-93
2023/06/17 00:12:13;;;;;;;5.55;3.97;;;;;;;;;;5044260;28;20040;-92
2023/06/17 00:14:42;;;;;;;6.07;4.10;;;;;;;;;;5043085;28;20029;-93
2023/06/17 00:17:11;;;;;;;6.32;4.15;;;;;;;;;;5045176;28;20021;-92
2023/06/17 00:19:40;;;;;;;5.30;4.40;;;;;;;;;;5040033;28;20025;-93
2023/06/17 00:22:08;;;;;;;5.38;4.57;;;;;;;;;;5045159;28;20036;-92
2023/06/17 00:24:38;;;;;;;6.55;4.50;;;;;;;;;;5040928;28;20093;-92
2023/06/17 00:27:04;;;;;;;8.23;4.80;;;;;;;;;;5050952;28;20443;-91
2023/06/17 00:29:30;;;;;;;6.45;4.80;;;;;;;;;;5027102;28;20099;-93
2023/06/17 00:31:56;;;;;;;5.72;4.60;;;;;;;;;;5046097;28;20029;-92
2023/06/17 00:34:22;;;;;;;6.20;4.78;;;;;;;;;;5044538;28;20535;-93
2023/06/17 00:36:51;;;;;;;6.32;4.70;;;;;;;;;;5010516;28;20029;-90
2023/06/17 00:39:19;;;;;;;11.20;5.13;;;;;;;;;;5041063;28;20030;-91
2023/06/17 00:41:46;;;;;;;7.32;5.43;;;;;;;;;;5043414;28;20416;-90
2023/06/17 00:44:12;;;;;;;6.47;4.80;;;;;;;;;;5033266;28;20033;-91
2023/06/17 00:46:39;;;;;;;7.10;4.88;;;;;;;;;;5044393;28;20099;-91
2023/06/17 00:49:09;;;;;;;6.60;5.45;;;;;;;;;;5039021;28;20438;-92
2023/06/17 00:51:36;;;;;;;6.35;5.13;;;;;;;;;;5043103;28;20032;-92
2023/06/17 00:54:02;;;;;;;7.07;4.80;;;;;;;;;;5042129;28;20041;-91
2023/06/17 00:56:29;;;;;;;6.30;4.60;;;;;;;;;;5044132;28;20545;-92
2023/06/17 00:58:56;;;;;;;7.43;4.95;;;;;;;;;;5032488;28;20025;-91
2023/06/17 01:01:24;;;;;;;7.80;5.22;;;;;;;;;;5041366;28;20037;-93
2023/06/17 01:03:51;;;;;;;6.25;5.00;;;;;;;;;;5037803;28;20037;-92
2023/06/17 01:06:29;;;;;;;5.95;4.70;;;;;;;;;;5047189;28;20044;-90
2023/06/17 01:09:02;;;;;;;5.75;5.05;;;;;;;;;;5042287;28;20054;-92
2023/06/17 01:11:50;;;;;;;7.47;5.20;;;;;;;;;;5040622;28;20028;-92
2023/06/17 01:14:16;;;;;;;6.65;5.35;;;;;;;;;;5042372;28;20044;-93
2023/06/17 01:16:43;;;;;;;7.68;6.10;;;;;;;;;;5047450;28;20108;-91
2023/06/17 01:19:20;;;;;;;6.65;5.32;;;;;;;;;;5054038;28;20021;-90
2023/06/17 01:21:54;;;;;;;7.75;5.65;;;;;;;;;;5052192;28;20106;-90
2023/06/17 01:24:30;;;;;;;6.72;5.63;;;;;;;;;;5057742;28;20068;-91
2023/06/17 01:26:59;;;;;;;6.72;5.65;;;;;;;;;;5041386;28;20084;-91
2023/06/17 01:29:29;;;;;;;7.60;5.65;;;;;;;;;;5053084;28;20091;-92
2023/06/17 01:31:59;;;;;;;7.00;5.80;;;;;;;;;;5046137;28;20108;-90
2023/06/17 01:34:48;;;;;;;7.20;6.13;;;;;;;;;;5074294;28;20089;-92
2023/06/17 01:37:28;;;;;;;7.78;5.55;;;;;;;;;;5064383;28;20079;-90
2023/06/17 01:40:04;;;;;;;6.57;5.88;;;;;;;;;;5061585;28;20028;-90
2023/06/17 01:42:32;;;;;;;6.43;5.43;;;;;;;;;;5038552;28;20057;-91
2023/06/17 01:45:05;;;;;;;8.82;5.88;;;;;;;;;;5043226;28;20026;-91
2023/06/17 01:47:32;;;;;;;8.80;5.97;;;;;;;;;;5062312;28;20029;-90
2023/06/17 01:50:07;;;;;;;7.60;6.05;;;;;;;;;;5042929;28;20089;-92
2023/06/17 01:52:35;;;;;;;7.18;5.80;;;;;;;;;;5046761;28;20025;-91
2023/06/17 01:55:02;;;;;;;7.85;5.78;;;;;;;;;;5065396;28;20025;-92
2023/06/17 01:57:28;;;;;;;7.10;5.95;;;;;;;;;;5046661;28;20041;-91
2023/06/17 01:59:54;;;;;;;7.13;5.85;;;;;;;;;;5043585;28;20025;-91
2023/06/17 02:02:20;;;;;;;8.63;6.20;;;;;;;;;;5044636;28;20051;-91
2023/06/17 02:04:48;;;;;;;7.22;5.65;;;;;;;;;;5046482;28;20101;-91
2023/06/17 02:07:17;;;;;;;6.80;5.40;;;;;;;;;;5045822;28;20670;-92
2023/06/17 02:09:46;;;;;;;8.63;5.40;;;;;;;;;;5045458;28;20025;-92
2023/06/17 02:12:13;;;;;;;6.45;5.38;;;;;;;;;;5062659;28;20080;-92
2023/06/17 02:14:38;;;;;;;9.25;5.97;;;;;;;;;;5039698;28;20033;-91
2023/06/17 02:17:10;;;;;;;6.50;5.80;;;;;;;;;;5036323;28;20045;-91
2023/06/17 02:19:39;;;;;;;7.47;5.53;;;;;;;;;;5043708;28;20068;-93
2023/06/17 02:22:08;;;;;;;7.45;6.07;;;;;;;;;;5049765;28;20033;-90
2023/06/17 02:24:34;;;;;;;6.93;5.95;;;;;;;;;;5053667;28;20026;-90
2023/06/17 02:27:00;;;;;;;7.65;6.03;;;;;;;;;;5033131;28;20393;-91
2023/06/17 02:29:26;;;;;;;7.18;6.05;;;;;;;;;;5040842;28;20038;-92
2023/06/17 02:31:54;;;;;;;9.15;6.10;;;;;;;;;;5044531;28;20051;-92
2023/06/17 02:34:20;;;;;;;7.60;5.97;;;;;;;;;;5062090;28;20090;-92
2023/06/17 02:36:46;;;;;;;7.45;6.00;;;;;;;;;;5046379;28;20030;-91
2023/06/17 02:39:15;;;;;;;8.60;6.78;;;;;;;;;;5039196;28;20040;-92
2023/06/17 02:41:41;;;;;;;7.75;6.10;;;;;;;;;;5047904;28;20049;-91
2023/06/17 02:44:07;;;;;;;8.63;6.60;;;;;;;;;;5044566;28;20048;-92
2023/06/17 02:46:33;;;;;;;10.88;6.30;;;;;;;;;;5036988;28;20468;-91
2023/06/17 02:48:58;;;;;;;10.60;7.10;;;;;;;;;;5046345;28;20029;-90
2023/06/17 02:51:24;;;;;;;7.22;6.13;;;;;;;;;;5035532;28;20029;-91
2023/06/17 02:53:50;;;;;;;8.00;6.50;;;;;;;;;;5035565;28;20072;-90
2023/06/17 02:56:16;;;;;;;7.75;6.90;;;;;;;;;;5041355;28;20017;-91
2023/06/17 02:58:45;;;;;;;7.63;6.63;;;;;;;;;;5041497;28;20033;-92
2023/06/17 03:01:12;;;;;;;8.50;7.30;;;;;;;;;;5043731;28;20030;-90
2023/06/17 03:03:41;;;;;;;7.65;6.80;;;;;;;;;;5053134;28;20036;-91
2023/06/17 03:06:07;;;;;;;8.68;6.45;;;;;;;;;;5045283;28;20025;-91
2023/06/17 03:08:36;;;;;;;8.45;6.95;;;;;;;;;;5044679;28;20425;-92
2023/06/17 03:11:05;;;;;;;8.02;7.07;;;;;;;;;;5053825;28;20044;-90
2023/06/17 03:13:30;;;;;;;8.05;6.90;;;;;;;;;;5046946;28;20021;-92
2023/06/17 03:15:58;;;;;;;9.70;6.88;;;;;;;;;;5046635;28;20028;-92
2023/06/17 03:18:24;;;;;;;7.25;6.47;;;;;;;;;;5050112;28;20040;-91
2023/06/17 03:20:55;;;;;;;9.05;7.13;;;;;;;;;;5043310;28;20022;-92
2023/06/17 03:23:21;;;;;;;9.25;7.22;;;;;;;;;;5053689;28;20030;-90
2023/06/17 03:25:51;;;;;;;8.15;6.45;;;;;;;;;;5046484;28;20021;-91
2023/06/17 03:28:18;;;;;;;7.75;6.93;;;;;;;;;;5049037;28;20017;-92
2023/06/17 03:30:44;;;;;;;9.10;6.72;;;;;;;;;;5067465;28;20026;-91
2023/06/17 03:33:11;;;;;;;9.00;7.32;;;;;;;;;;5048433;28;20051;-90
2023/06/17 03:35:36;;;;;;;10.80;6.97;;;;;;;;;;5046415;28;20079;-90
2023/06/17 03:38:02;;;;;;;9.23;7.30;;;;;;;;;;5041665;28;20061;-90
2023/06/17 03:40:28;;;;;;;8.80;7.05;;;;;;;;;;5040144;28;20035;-92
2023/06/17 03:42:54;;;;;;;8.10;7.05;;;;;;;;;;5040447;28;20037;-91
2023/06/17 03:45:21;;;;;;;8.32;7.32;;;;;;;;;;5062679;28;20101;-93
2023/06/17 03:47:46;;;;;;;8.13;6.90;;;;;;;;;;5046149;28;20029;-92
2023/06/17 03:50:12;;;;;;;8.73;6.88;;;;;;;;;;5042639;28;20028;-92
2023/06/17 03:52:38;;;;;;;7.82;6.90;;;;;;;;;;5043676;28;20032;-92
2023/06/17 03:55:04;;;;;;;7.93;7.00;;;;;;;;;;5041079;28;20037;-92
2023/06/17 03:57:29;;;;;;;8.55;6.95;;;;;;;;;;5037578;28;20025;-91
2023/06/17 03:59:57;;;;;;;11.02;7.18;;;;;;;;;;5044271;28;20045;-91
2023/06/17 04:02:24;;;;;;;11.18;7.38;;;;;;;;;;5051182;28;20034;-89
2023/06/17 04:04:53;;;;;;;8.05;6.97;;;;;;;;;;5066915;22;20041;-77
2023/06/17 04:07:20;;;;;;;7.90;6.82;;;;;;;;;;5051855;28;20029;-78
2023/06/17 04:09:45;;;;;;;7.95;7.15;;;;;;;;;;5053354;28;20026;-78
2023/06/17 04:12:11;;;;;;;8.52;7.10;;;;;;;;;;5061179;28;20023;-78
2023/06/17 04:14:37;;;;;;;8.88;7.47;;;;;;;;;;5053307;28;20446;-76
2023/06/17 04:17:03;;;;;;;8.93;7.10;;;;;;;;;;5047924;28;20491;-78
2023/06/17 04:19:29;;;;;;;8.35;7.13;;;;;;;;;;5052641;28;20028;-79
2023/06/17 04:21:54;;;;;;;8.20;6.75;;;;;;;;;;5050663;28;20116;-79
2023/06/17 04:24:20;;;;;;;7.65;6.85;;;;;;;;;;5051344;28;20032;-79
2023/06/17 04:26:45;;;;;;;9.60;7.13;;;;;;;;;;5053536;28;20124;-78
2023/06/17 04:29:11;;;;;;;8.07;7.10;;;;;;;;;;5047178;28;20024;-79
2023/06/17 04:31:40;;;;;;;9.40;6.70;;;;;;;;;;5056954;28;20017;-79
2023/06/17 04:34:05;;;;;;;9.60;6.32;;;;;;;;;;5052429;28;20029;-79
2023/06/17 04:36:31;;;;;;;8.55;7.15;;;;;;;;;;5050390;28;20091;-77
2023/06/17 04:38:56;;;;;;;8.10;6.88;;;;;;;;;;5050984;28;20120;-76
2023/06/17 04:41:22;;;;;;;7.80;6.60;;;;;;;;;;5050100;28;20048;-79
2023/06/17 04:43:48;;;;;;;9.43;7.70;;;;;;;;;;5053352;28;20036;-79
2023/06/17 04:46:16;;;;;;;8.40;6.82;;;;;;;;;;5056121;28;20021;-78
2023/06/17 04:48:42;;;;;;;8.57;7.63;;;;;;;;;;5058844;28;20039;-78
2023/06/17 04:51:07;;;;;;;9.02;7.22;;;;;;;;;;5049022;28;20032;-79
2023/06/17 04:53:32;;;;;;;10.27;7.47;;;;;;;;;;5056289;28;20108;-79
2023/06/17 04:55:58;;;;;;;10.50;7.75;;;;;;;;;;5061508;28;20036;-76
2023/06/17 04:58:23;;;;;;;11.02;7.05;;;;;;;;;;5058697;28;20079;-79
2023/06/17 05:00:49;;;;;;;8.95;7.38;;;;;;;;;;5058668;28;20029;-79
2023/06/17 05:03:14;;;;;;;9.75;7.60;;;;;;;;;;5054968;28;20021;-79
2023/06/17 05:05:39;;;;;;;7.65;6.75;;;;;;;;;;5044675;28;20037;-78
2023/06/17 05:08:05;;;;;;;8.85;6.63;;;;;;;;;;5046383;28;20029;-79
2023/06/17 05:10:30;;;;;;;7.85;7.05;;;;;;;;;;5055801;28;20028;-78
2023/06/17 05:12:56;;;;;;;9.90;6.80;;;;;;;;;;5044974;28;20119;-78
2023/06/17 05:15:21;;;;;;;8.63;6.50;;;;;;;;;;5048776;28;20028;-78
2023/06/17 05:17:46;;;;;;;8.32;6.43;;;;;;;;;;5045409;28;20032;-78
2023/06/17 05:20:12;;;;;;;7.45;6.32;;;;;;;;;;5057591;28;20021;-78
2023/06/17 05:22:37;;;;;;;8.73;6.85;;;;;;;;;;5052719;28;20378;-77
2023/06/17 05:25:03;;;;;;;10.18;6.45;;;;;;;;;;5044490;28;20052;-79
2023/06/17 05:27:28;;;;;;;7.38;6.30;;;;;;;;;;5043096;28;20036;-77
2023/06/17 05:29:54;;;;;;;8.80;7.18;;;;;;;;;;5044799;28;20362;-78
2023/06/17 05:32:19;;;;;;;9.00;6.80;;;;;;;;;;5044523;28;20392;-78
2023/06/17 05:34:45;;;;;;;9.35;7.43;;;;;;;;;;5050312;28;20040;-79
2023/06/17 05:37:10;;;;;;;7.80;7.00;;;;;;;;;;5048562;28;20166;-79
2023/06/17 05:39:35;;;;;;;14.07;7.10;;;;;;;;;;5035584;28;20032;-79
2023/06/17 05:42:01;;;;;;;8.55;6.60;;;;;;;;;;5047811;28;20022;-79
2023/06/17 05:44:26;;;;;;;8.63;7.15;;;;;;;;;;5043598;28;20033;-79
2023/06/17 05:46:52;;;;;;;10.25;7.30;;;;;;;;;;5040121;28;20057;-79
2023/06/17 05:49:17;;;;;;;9.50;7.15;;;;;;;;;;5046582;28;20386;-79
2023/06/17 05:51:42;;;;;;;9.15;7.28;;;;;;;;;;5045694;28;20041;-78
2023/06/17 05:54:08;;;;;;;10.30;7.80;;;;;;;;;;5039152;28;20024;-78
2023/06/17 05:56:33;;;;;;;9.23;7.90;;;;;;;;;;5053230;28;20552;-79
2023/06/17 05:58:59;;;;;;;11.35;8.52;;;;;;;;;;5053664;28;20059;-79
2023/06/17 06:01:24;;;;;;;10.15;8.30;;;;;;;;;;5057904;28;20461;-78
2023/06/17 06:03:49;;;;;;;10.25;8.30;;;;;;;;;;5051898;28;20083;-79
2023/06/17 06:06:15;;;;;;;11.13;7.60;;;;;;;;;;5048408;28;20056;-78
2023/06/17 06:08:41;;;;;;;11.40;8.90;;;;;;;;;;5050237;28;20045;-78
2023/06/17 06:11:06;;;;;;;12.23;8.77;;;;;;;;;;5051360;28;20465;-79
2023/06/17 06:13:32;;;;;;;13.18;8.52;;;;;;;;;;5049491;28;20040;-79
2023/06/17 06:15:57;;;;;;;10.40;8.70;;;;;;;;;;5043937;28;20041;-79
2023/06/17 06:18:23;;;;;;;10.63;8.90;;;;;;;;;;5054289;28;20029;-78
2023/06/17 06:20:48;;;;;;;11.23;8.55;;;;;;;;;;5043926;28;20029;-78
2023/06/17 06:23:13;;;;;;;8.80;7.78;;;;;;;;;;5039588;28;20389;-78
2023/06/17 06:25:39;;;;;;;10.93;8.45;;;;;;;;;;5049555;28;20484;-79
2023/06/17 06:28:05;;;;;;;11.20;7.30;;;;;;;;;;5043105;28;20501;-80
2023/06/17 06:30:31;;;;;;;13.10;8.95;;;;;;;;;;5052280;28;20105;-79
2023/06/17 06:32:56;;;;;;;12.50;9.75;;;;;;;;;;5060293;28;20048;-78
2023/06/17 06:35:22;;;;;;;11.75;8.90;;;;;;;;;;5042673;28;20041;-78
2023/06/17 06:37:47;;;;;;;10.65;7.82;;;;;;;;;;5057739;28;20057;-77
2023/06/17 06:40:13;;;;;;;9.82;7.75;;;;;;;;;;5069301;28;20031;-75
2023/06/17 06:42:38;;;;;;;9.73;8.27;;;;;;;;;;5072787;28;20043;-80
2023/06/17 06:45:04;;;;;;;11.68;8.98;;;;;;;;;;5074826;28;20116;-78
2023/06/17 06:47:30;;;;;;;12.40;8.77;;;;;;;;;;5071872;28;20028;-77
2023/06/17 06:49:55;;;;;;;12.05;8.95;;;;;;;;;;5069548;28;20037;-76
2023/06/17 06:52:21;;;;;;;10.65;8.77;;;;;;;;;;5075351;28;20043;-80
2023/06/17 06:54:47;;;;;;;10.98;8.18;;;;;;;;;;5066210;28;20033;-80
2023/06/17 06:57:12;;;;;;;10.65;8.23;;;;;;;;;;5071470;28;20025;-78
2023/06/17 06:59:38;;;;;;;9.95;8.15;;;;;;;;;;5066456;28;20025;-77
2023/06/17 07:02:03;;;;;;;9.68;8.00;;;;;;;;;;5064104;28;20029;-78
2023/06/17 07:04:29;;;;;;;11.25;8.57;;;;;;;;;;5070383;28;20041;-80
2023/06/17 07:06:54;;;;;;;10.43;7.82;;;;;;;;;;5064343;28;20026;-75
2023/06/17 07:09:19;;;;;;;9.45;7.25;;;;;;;;;;5059785;28;20505;-78
2023/06/17 07:11:45;;;;;;;8.75;7.50;;;;;;;;;;5061754;28;20039;-77
2023/06/17 07:14:11;;;;;;;8.95;7.57;;;;;;;;;;5068339;28;20029;-78
2023/06/17 07:16:37;;;;;;;10.15;6.93;;;;;;;;;;5058533;28;20025;-80
2023/06/17 07:19:02;;;;;;;8.13;6.70;;;;;;;;;;5065335;28;20051;-77
2023/06/17 07:21:28;;;;;;;7.22;6.00;;;;;;;;;;5052596;28;20044;-80
2023/06/17 07:23:53;;;;;;;9.25;6.93;;;;;;;;;;5071798;28;20085;-80
2023/06/17 07:26:18;;;;;;;10.07;6.68;;;;;;;;;;5076075;28;20020;-80
2023/06/17 07:28:44;;;;;;;9.15;6.90;;;;;;;;;;5071557;28;20084;-81
2023/06/17 07:31:09;;;;;;;8.07;6.03;;;;;;;;;;5064780;28;20025;-78
2023/06/17 07:33:35;;;;;;;7.22;5.85;;;;;;;;;;5073539;28;20053;-79
2023/06/17 07:36:00;;;;;;;9.15;5.80;;;;;;;;;;5071726;28;20024;-77
2023/06/17 07:38:26;;;;;;;10.40;6.38;;;;;;;;;;5071730;28;20031;-77
2023/06/17 07:40:51;;;;;;;8.13;6.25;;;;;;;;;;5080807;28;20584;-80
2023/06/17 07:43:17;;;;;;;10.82;6.20;;;;;;;;;;5070545;28;20031;-80
2023/06/17 07:45:43;;;;;;;7.80;5.93;;;;;;;;;;5129268;22;20099;-88
2023/06/17 07:48:09;;;;;;;8.55;6.15;;;;;;;;;;5016429;28;20045;-89
2023/06/17 07:50:35;;;;;;;9.07;5.88;;;;;;;;;;5035428;28;20595;-88
2023/06/17 07:53:01;;;;;;;7.40;5.80;;;;;;;;;;5017226;28;20034;-88
2023/06/17 07:55:28;;;;;;;6.60;5.45;;;;;;;;;;5014369;28;20029;-88
2023/06/17 07:57:54;;;;;;;8.48;5.32;;;;;;;;;;5014413;28;20116;-89
2023/06/17 08:00:20;;;;;;;7.20;4.78;;;;;;;;;;5025535;28;20054;-88
2023/06/17 08:02:46;;;;;;;7.03;5.22;;;;;;;;;;5019002;28;20034;-88
2023/06/17 08:05:12;;;;;;;5.93;4.80;;;;;;;;;;5018142;28;20083;-88
2023/06/17 08:07:38;;;;;;;7.38;4.82;;;;;;;;;;5016590;28;20036;-89
2023/06/17 08:10:04;;;;;;;7.80;4.85;;;;;;;;;;5022528;28;20022;-88
2023/06/17 08:12:31;;;;;;;7.63;5.38;;;;;;;;;;5028044;28;20030;-89
2023/06/17 08:14:56;;;;;;;8.57;5.40;;;;;;;;;;5022697;28;20403;-88
2023/06/17 08:17:25;;;;;;;7.03;5.03;;;;;;;;;;5021569;28;20056;-89
2023/06/17 08:19:57;;;;;;;7.00;5.18;;;;;;;;;;5022392;28;20040;-88
2023/06/17 08:22:26;;;;;;;7.85;4.85;;;;;;;;;;5023554;28;20080;-89
2023/06/17 08:24:54;;;;;;;5.85;4.80;;;;;;;;;;5038521;28;20140;-88
2023/06/17 08:27:22;;;;;;;6.93;4.70;;;;;;;;;;5019228;28;20022;-88
2023/06/17 08:30:05;;;;;;;12.23;5.68;;;;;;;;;;5013621;28;20034;-88
2023/06/17 08:32:30;;;;;;;7.20;4.63;;;;;;;;;;5020237;28;20021;-87
2023/06/17 08:35:17;;;;;;;6.90;4.90;;;;;;;;;;5025362;28;20053;-89
2023/06/17 08:38:28;;;;;;;7.82;4.47;;;;;;;;;;5025245;28;20106;-89
2023/06/17 08:40:57;;;;;;;7.97;5.55;;;;;;;;;;5020350;28;20033;-89
2023/06/17 08:43:35;;;;;;;8.43;5.80;;;;;;;;;;5024630;28;20029;-88
2023/06/17 08:46:20;;;;;;;7.57;5.22;;;;;;;;;;5017055;28;20109;-88
2023/06/17 08:49:20;;;;;;;7.88;5.20;;;;;;;;;;5028056;28;20049;-89
2023/06/17 08:52:16;;;;;;;7.03;5.32;;;;;;;;;;5009996;28;20103;-90
2023/06/17 08:54:43;;;;;;;7.20;5.10;;;;;;;;;;5023765;28;20025;-89
2023/06/17 09:01:20;;;;;;;7.07;5.18;;;;;;;;;;4960967;28;20071;-89
2023/06/17 09:04:37;;;;;;;5.55;3.70;;;;;;;;;;5001281;28;20042;-88
2023/06/17 09:07:52;;;;;;;;;;;;;;;;;;;;;
2023/06/17 09:14:37;;;;;;;6.88;4.93;;;;;;;;;;5006014;28;20030;-89
2023/06/17 09:18:03;;;;;;;6.55;4.35;;;;;;;;;;5005262;28;20030;-89
2023/06/17 09:21:02;;;;;;;6.95;4.05;;;;;;;;;;4990004;28;20061;-89
2023/06/17 09:23:52;;;;;;;5.35;3.85;;;;;;;;;;5000322;28;20026;-88
2023/06/17 09:26:42;;;;;;;6.18;3.63;;;;;;;;;;4984398;28;20039;-88
2023/06/17 09:29:40;;;;;;;5.45;3.75;;;;;;;;;;4990078;28;20042;-90
2023/06/17 09:32:10;;;;;;;6.72;4.03;;;;;;;;;;4996872;28;20049;-89
2023/06/17 09:34:47;;;;;;;6.55;3.58;;;;;;;;;;5023645;28;20030;-89
2023/06/17 09:37:15;;;;;;;5.28;3.90;;;;;;;;;;5033790;28;20006;-89
2023/06/17 09:39:46;;;;;;;5.30;4.07;;;;;;;;;;5033655;28;20041;-89
2023/06/17 09:42:12;;;;;;;4.78;3.60;;;;;;;;;;5025760;28;20030;-88
2023/06/17 09:44:44;;;;;;;5.95;3.58;;;;;;;;;;5028326;28;20088;-89
2023/06/17 09:47:10;;;;;;;4.70;3.40;;;;;;;;;;5032226;28;20026;-88
2023/06/17 09:49:37;;;;;;;6.20;3.67;;;;;;;;;;5035315;28;20014;-89
2023/06/17 09:52:05;;;;;;;7.20;3.50;;;;;;;;;;5031317;28;20018;-89
2023/06/17 09:54:32;;;;;;;5.32;3.33;;;;;;;;;;5036868;28;20030;-88
2023/06/17 09:57:01;;;;;;;6.72;3.95;;;;;;;;;;5034022;28;20032;-88
2023/06/17 09:59:26;;;;;;;6.38;3.83;;;;;;;;;;5030653;28;20026;-88
2023/06/17 10:01:52;;;;;;;5.90;3.97;;;;;;;;;;5041809;28;20035;-89
2023/06/17 10:04:49;;;;;;;7.22;3.70;;;;;;;;;;5035148;28;20014;-88
2023/06/17 10:07:17;;;;;;;5.63;3.60;;;;;;;;;;5017306;28;20106;-89
2023/06/17 10:09:42;;;;;;;5.55;3.60;;;;;;;;;;5038148;28;20033;-89
2023/06/17 10:12:10;;;;;;;5.00;3.67;;;;;;;;;;5027064;28;20010;-89
2023/06/17 10:14:36;;;;;;;7.88;4.00;;;;;;;;;;5034232;28;20029;-89
2023/06/17 10:17:05;;;;;;;5.40;3.40;;;;;;;;;;5030284;28;20085;-89
2023/06/17 10:19:33;;;;;;;5.50;3.92;;;;;;;;;;5032803;28;20018;-89
2023/06/17 10:22:03;;;;;;;5.07;3.35;;;;;;;;;;5033795;28;20029;-90
2023/06/17 10:24:29;;;;;;;4.53;3.50;;;;;;;;;;5033567;28;20041;-89
2023/06/17 10:27:03;;;;;;;7.60;3.90;;;;;;;;;;5032754;28;20033;-88
2023/06/17 10:29:29;;;;;;;6.82;4.00;;;;;;;;;;5031322;28;20093;-88
2023/06/17 10:31:55;;;;;;;5.40;3.53;;;;;;;;;;5023675;28;20434;-90
2023/06/17 10:34:22;;;;;;;5.53;3.42;;;;;;;;;;5020992;28;20038;-88
2023/06/17 10:36:51;;;;;;;5.13;3.55;;;;;;;;;;5017553;28;20034;-90
2023/06/17 10:39:17;;;;;;;5.68;3.78;;;;;;;;;;5023725;28;20021;-90
2023/06/17 10:41:55;;;;;;;8.20;4.38;;;;;;;;;;5015356;28;20094;-90
2023/06/17 10:44:33;;;;;;;5.68;3.25;;;;;;;;;;5022213;28;20044;-90
2023/06/17 10:46:59;;;;;;;5.75;3.45;;;;;;;;;;5022288;28;20026;-89
2023/06/17 10:49:25;;;;;;;5.80;3.45;;;;;;;;;;5026202;28;20037;-90
2023/06/17 10:52:03;;;;;;;4.22;3.13;;;;;;;;;;5024945;28;20029;-90
2023/06/17 10:54:33;;;;;;;4.68;3.22;;;;;;;;;;5013348;28;20035;-90
2023/06/17 10:57:04;;;;;;;8.65;3.80;;;;;;;;;;5026152;28;20236;-89
2023/06/17 10:59:33;;;;;;;7.95;3.50;;;;;;;;;;5038220;28;20548;-88
2023/06/17 11:02:45;;;;;;;5.47;3.17;;;;;;;;;;5025766;28;20026;-88
2023/06/17 11:17:07;;;;;;;5.13;3.67;;;;;;;;;;4987969;28;20050;-88
2023/06/17 11:20:37;;;;;;;5.10;3.22;;;;;;;;;;4926726;29;20775;-89
2023/06/17 11:23:50;;;;;;;6.95;3.33;;;;;;;;;;4925061;29;20044;-89
2023/06/17 11:26:49;;;;;;;;;;;;;;;;;;;;;
2023/06/17 11:29:50;;;;;;;5.78;3.42;;;;;;;;;;4891573;29;20060;-88
2023/06/17 11:32:43;;;;;;;;;;;;;;;;;;;;;
2023/06/17 11:43:20;;;;;;;4.80;3.00;;;;;;;;;;4970707;28;20054;-89
2023/06/17 11:49:08;;;;;;;5.15;3.13;;;;;;;;;;5029676;28;20086;-89
2023/06/17 11:58:25;;;;;;;7.07;3.25;;;;;;;;;;5031824;28;20037;-90
2023/06/17 12:01:14;;;;;;;4.20;3.13;;;;;;;;;;5011760;28;20060;-91
2023/06/17 12:07:27;;;;;;;4.55;3.10;;;;;;;;;;4984909;28;20489;-90
2023/06/17 12:18:25;;;;;;;3.72;2.70;;;;;;;;;;4807270;29;20037;-89
2023/06/17 12:21:21;;;;;;;5.90;3.58;;;;;;;;;;4834545;29;20513;-90
2023/06/17 12:24:45;;;;;;;4.40;2.83;;;;;;;;;;4890367;29;20040;-91
2023/06/17 12:27:47;;;;;;;;;;;;;;;;;;;;;
2023/06/17 12:30:18;;;;;;;3.95;2.70;;;;;;;;;;4889580;29;20048;-90
2023/06/17 12:32:45;;;;;;;3.78;2.92;;;;;;;;;;4920903;28;20043;-89
2023/06/17 12:42:39;;;;;;;3.83;2.50;;;;;;;;;;5029166;28;20144;-90
2023/06/17 12:57:10;;;;;;;;;;;;;;;;;;;;;
2023/06/17 13:03:48;;;;;;;3.92;2.53;;;;;;;;;;4961018;28;20043;-90
2023/06/17 13:07:22;;;;;;;;;;;;;;;;;;;;;
2023/06/17 13:10:21;;;;;;;5.45;2.60;;;;;;;;;;4945298;28;21110;-91
2023/06/17 13:24:30;;;;;;;4.85;3.00;;;;;;;;;;4963736;28;20038;-90
2023/06/17 13:27:33;;;;;;;;;;;;;;;;;;;;;
2023/06/17 13:30:15;;;;;;;4.55;2.65;;;;;;;;;;4928847;28;20051;-89
2023/06/17 13:33:08;;;;;;;3.60;2.40;;;;;;;;;;4939360;28;20031;-91
2023/06/17 13:51:32;;;;;;;4.28;2.50;;;;;;;;;;4775974;29;20552;-91
2023/06/17 14:01:09;;;;;;;4.18;2.30;;;;;;;;;;4767501;29;20039;-90
2023/06/17 14:03:35;;;;;;;4.20;2.58;;;;;;;;;;4747335;30;20115;-90
2023/06/17 14:06:01;;;;;;;5.63;2.90;;;;;;;;;;4749807;30;20134;-89
2023/06/17 14:08:49;;;;;;;4.15;2.78;;;;;;;;;;4810644;29;20058;-90
2023/06/17 14:14:32;;;;;;;5.47;2.83;;;;;;;;;;4850871;29;20056;-89
2023/06/17 14:17:06;;;;;;;3.20;2.58;;;;;;;;;;4878757;29;20119;-91
2023/06/17 14:21:26;;;;;;;;;;;;;;;;;;;;;
2023/06/17 14:23:13;;;;;;;4.95;2.70;;;;;;;;;;4983879;28;20610;-89
2023/06/17 14:26:32;;;;;;;;;;;;;;;;;;;;;
2023/06/17 14:29:38;;;;;;;4.38;3.05;;;;;;;;;;4984017;28;20121;-90
2023/06/17 14:32:36;;;;;;;4.13;2.72;;;;;;;;;;5004191;28;20041;-90
2023/06/17 14:35:33;;;;;;;4.32;3.00;;;;;;;;;;5050919;28;20041;-90
2023/06/17 14:37:59;;;;;;;5.88;2.97;;;;;;;;;;5063022;22;20055;-76
2023/06/17 14:40:24;;;;;;;5.10;2.70;;;;;;;;;;5043469;28;20032;-76
2023/06/17 14:42:49;;;;;;;4.38;2.80;;;;;;;;;;5062455;28;20059;-76
2023/06/17 14:45:16;;;;;;;5.00;2.78;;;;;;;;;;5049253;28;20453;-76
2023/06/17 14:47:42;;;;;;;6.20;2.88;;;;;;;;;;5047360;28;20376;-77
2023/06/17 14:50:10;;;;;;;3.90;2.90;;;;;;;;;;5064929;28;20039;-76
2023/06/17 14:52:36;;;;;;;5.25;2.92;;;;;;;;;;5040562;28;20091;-76
2023/06/17 14:55:03;;;;;;;5.55;3.05;;;;;;;;;;5052117;28;20024;-77
2023/06/17 14:57:28;;;;;;;4.63;3.00;;;;;;;;;;5049747;28;20056;-77
2023/06/17 14:59:54;;;;;;;4.25;2.70;;;;;;;;;;5053115;28;20054;-76
2023/06/17 15:02:45;;;;;;;4.65;3.10;;;;;;;;;;5064672;28;20035;-77
2023/06/17 15:05:11;;;;;;;3.90;2.75;;;;;;;;;;5043868;28;20033;-76
2023/06/17 15:07:36;;;;;;;4.13;3.05;;;;;;;;;;5051722;28;20036;-77
2023/06/17 15:10:03;;;;;;;4.50;2.92;;;;;;;;;;5072876;28;20524;-76
2023/06/17 15:12:28;;;;;;;4.20;2.70;;;;;;;;;;5063288;28;20029;-76
2023/06/17 15:14:54;;;;;;;4.85;2.72;;;;;;;;;;5052336;28;20032;-76
2023/06/17 15:17:20;;;;;;;3.97;2.70;;;;;;;;;;5066311;28;20055;-76
2023/06/17 15:19:46;;;;;;;4.18;3.03;;;;;;;;;;5070907;28;20039;-76
2023/06/17 15:22:12;;;;;;;4.28;2.97;;;;;;;;;;5047596;28;20032;-76
2023/06/17 15:24:37;;;;;;;6.25;3.15;;;;;;;;;;5071504;28;20032;-76
2023/06/17 15:27:03;;;;;;;4.35;2.85;;;;;;;;;;5093436;28;20081;-76
2023/06/17 15:29:28;;;;;;;5.25;2.90;;;;;;;;;;5068189;28;20051;-77
2023/06/17 15:31:54;;;;;;;5.97;2.83;;;;;;;;;;5085279;28;20087;-77
2023/06/17 15:34:19;;;;;;;4.57;3.00;;;;;;;;;;5068703;28;20039;-77
2023/06/17 15:36:44;;;;;;;4.88;2.90;;;;;;;;;;5070333;28;20039;-76
2023/06/17 15:39:19;;;;;;;4.85;2.80;;;;;;;;;;5093339;28;20434;-76
2023/06/17 15:41:49;;;;;;;5.53;3.38;;;;;;;;;;5068587;28;20027;-76
2023/06/17 15:44:15;;;;;;;3.63;2.67;;;;;;;;;;5081217;28;20028;-76
2023/06/17 15:46:41;;;;;;;6.90;3.40;;;;;;;;;;5065917;28;20094;-77
2023/06/17 15:49:06;;;;;;;4.30;2.92;;;;;;;;;;5062026;28;20305;-76
2023/06/17 15:51:33;;;;;;;4.03;2.90;;;;;;;;;;5084635;28;20020;-76
2023/06/17 15:53:58;;;;;;;5.20;2.75;;;;;;;;;;5065163;28;20051;-76
2023/06/17 15:56:25;;;;;;;5.50;3.03;;;;;;;;;;5070367;28;20754;-76
2023/06/17 15:58:50;;;;;;;4.40;2.72;;;;;;;;;;5076194;28;20019;-76
2023/06/17 16:01:16;;;;;;;5.68;3.17;;;;;;;;;;5060923;28;20082;-76
2023/06/17 16:03:42;;;;;;;5.38;3.00;;;;;;;;;;5058313;28;20117;-76
2023/06/17 16:06:08;;;;;;;3.97;2.90;;;;;;;;;;5081607;28;20157;-76
2023/06/17 16:08:35;;;;;;;3.38;2.65;;;;;;;;;;5083430;28;20059;-77
2023/06/17 16:11:00;;;;;;;5.18;3.05;;;;;;;;;;5079239;28;20020;-76
2023/06/17 16:13:26;;;;;;;5.65;3.10;;;;;;;;;;5077400;28;20043;-76
2023/06/17 16:15:51;;;;;;;4.03;2.70;;;;;;;;;;5079879;28;20031;-76
2023/06/17 16:18:16;;;;;;;4.30;2.67;;;;;;;;;;5064020;28;20430;-76
2023/06/17 16:20:42;;;;;;;4.28;2.70;;;;;;;;;;5075374;28;20037;-76
2023/06/17 16:23:07;;;;;;;4.13;2.80;;;;;;;;;;5076746;28;20035;-77
2023/06/17 16:25:32;;;;;;;3.75;2.65;;;;;;;;;;5080246;28;20028;-76
2023/06/17 16:27:58;;;;;;;5.68;3.05;;;;;;;;;;5059349;28;20069;-76
2023/06/17 16:30:23;;;;;;;5.07;3.15;;;;;;;;;;5085271;28;20024;-76
2023/06/17 16:32:49;;;;;;;4.88;2.90;;;;;;;;;;5086542;28;20031;-76
2023/06/17 16:35:14;;;;;;;4.93;3.10;;;;;;;;;;5066426;28;20124;-76
2023/06/17 16:37:39;;;;;;;5.13;3.08;;;;;;;;;;5091172;28;20024;-76
2023/06/17 16:40:05;;;;;;;4.68;2.97;;;;;;;;;;5072230;28;20033;-76
2023/06/17 16:42:32;;;;;;;4.72;3.08;;;;;;;;;;5093406;28;20031;-77
2023/06/17 16:45:03;;;;;;;3.67;2.63;;;;;;;;;;5084954;28;20488;-77
2023/06/17 16:47:28;;;;;;;4.07;2.88;;;;;;;;;;5094806;28;20024;-76
2023/06/17 16:49:54;;;;;;;5.50;2.75;;;;;;;;;;5082587;28;20020;-76
2023/06/17 16:52:19;;;;;;;5.15;2.90;;;;;;;;;;5082146;28;20617;-76
2023/06/17 16:54:47;;;;;;;4.45;3.00;;;;;;;;;;5096195;28;20385;-76
2023/06/17 16:57:13;;;;;;;6.20;3.10;;;;;;;;;;5069357;28;20055;-76
2023/06/17 16:59:39;;;;;;;4.78;2.70;;;;;;;;;;5093549;28;20024;-77
2023/06/17 17:02:05;;;;;;;5.15;2.90;;;;;;;;;;5088532;28;20020;-77
2023/06/17 17:04:30;;;;;;;4.20;2.70;;;;;;;;;;5068894;28;20420;-76